Time;durP1;ratioP1;P1;durP2;ratioP2;P2;SDS_P1;SDS_P2;PMS_P1;PMS_P2;Temp;Humidity;BMP_temperature;BMP_pressure;BME280_temperature;BME280_humidity;BME280_pressure;Samples;Min_cycle;Max_cycle;Signal;HPM_P1;HPM_P2
2022/05/03 00:00:41;;;;;;;15.20;13.68;;;9.30;99.90;;;;;;5032333;28;20041;-59
2022/05/03 00:03:24;;;;;;;13.48;12.10;;;9.40;99.90;;;;;;5034058;28;20034;-60
2022/05/03 00:06:18;;;;;;;13.80;12.27;;;9.40;99.90;;;;;;5032671;28;20033;-60
2022/05/03 00:09:01;;;;;;;14.27;12.60;;;9.30;99.90;;;;;;5034055;28;20544;-60
2022/05/03 00:11:32;;;;;;;16.63;12.88;;;9.20;99.90;;;;;;5032639;28;20025;-60
2022/05/03 00:14:04;;;;;;;14.55;12.55;;;9.30;99.90;;;;;;5013287;28;20037;-60
2022/05/03 00:16:32;;;;;;;14.15;12.73;;;9.10;99.90;;;;;;5034089;28;20029;-60
2022/05/03 00:19:00;;;;;;;13.50;12.30;;;9.00;99.90;;;;;;5034930;28;20108;-60
2022/05/03 00:21:27;;;;;;;16.13;14.55;;;9.00;99.90;;;;;;5033722;28;20401;-60
2022/05/03 00:23:53;;;;;;;16.45;14.90;;;9.00;99.90;;;;;;5034077;28;20482;-60
2022/05/03 00:26:19;;;;;;;14.98;13.02;;;9.20;99.90;;;;;;5032289;28;20500;-60
2022/05/03 00:28:45;;;;;;;18.27;15.98;;;9.30;99.90;;;;;;5030614;28;20044;-60
2022/05/03 00:31:12;;;;;;;16.02;14.35;;;9.30;99.90;;;;;;5036113;28;20033;-60
2022/05/03 00:33:40;;;;;;;15.85;14.32;;;9.20;99.90;;;;;;5033758;28;20033;-60
2022/05/03 00:36:07;;;;;;;15.88;13.82;;;9.20;99.90;;;;;;5033670;28;20018;-60
2022/05/03 00:38:34;;;;;;;15.48;14.07;;;9.20;99.90;;;;;;5033468;28;20045;-59
2022/05/03 00:41:04;;;;;;;18.63;16.30;;;9.20;99.90;;;;;;5029961;28;20522;-60
2022/05/03 00:43:32;;;;;;;17.55;15.75;;;9.10;99.90;;;;;;5034518;28;20111;-60
2022/05/03 00:46:03;;;;;;;16.63;14.93;;;9.00;99.90;;;;;;5038182;28;20033;-60
2022/05/03 00:48:56;;;;;;;16.40;14.70;;;9.10;99.90;;;;;;5037129;28;20037;-59
2022/05/03 00:51:45;;;;;;;16.75;14.90;;;9.00;99.90;;;;;;5035765;28;20074;-60
2022/05/03 00:54:23;;;;;;;19.13;17.33;;;9.00;99.90;;;;;;5035053;28;20064;-60
2022/05/03 00:57:20;;;;;;;20.58;18.20;;;8.90;99.90;;;;;;5037330;28;20048;-60
2022/05/03 01:00:05;;;;;;;18.40;16.55;;;8.90;99.90;;;;;;5037042;28;20145;-60
2022/05/03 01:02:52;;;;;;;19.35;17.55;;;8.70;99.90;;;;;;5036729;28;20037;-60
2022/05/03 01:05:25;;;;;;;19.23;17.40;;;8.80;99.90;;;;;;5035399;28;20021;-60
2022/05/03 01:08:14;;;;;;;19.77;17.80;;;8.80;99.90;;;;;;5032489;28;20045;-60
2022/05/03 01:10:54;;;;;;;18.20;16.30;;;8.80;99.90;;;;;;5046727;28;20085;-60
2022/05/03 01:13:36;;;;;;;20.60;17.90;;;8.80;99.90;;;;;;5038753;28;20101;-59
2022/05/03 01:16:05;;;;;;;20.80;18.67;;;8.70;99.90;;;;;;5038044;28;20033;-59
2022/05/03 01:18:41;;;;;;;20.38;18.23;;;8.70;99.90;;;;;;5035410;28;20104;-60
2022/05/03 01:21:07;;;;;;;20.67;18.25;;;8.80;99.90;;;;;;5035234;28;20041;-60
2022/05/03 01:23:45;;;;;;;22.52;20.17;;;8.70;99.90;;;;;;5035237;28;20505;-60
2022/05/03 01:26:11;;;;;;;23.50;19.13;;;;;;;;;;5034252;28;20029;-60
2022/05/03 01:28:54;;;;;;;21.58;19.25;;;8.70;99.90;;;;;;5035382;28;20156;-60
2022/05/03 01:31:22;;;;;;;20.80;18.73;;;8.60;99.90;;;;;;5038322;28;20036;-58
2022/05/03 01:33:50;;;;;;;20.70;18.58;;;8.60;99.90;;;;;;5034980;28;20030;-60
2022/05/03 01:36:39;;;;;;;21.05;17.83;;;8.60;99.90;;;;;;5036486;28;20057;-60
2022/05/03 01:39:14;;;;;;;20.00;17.52;;;8.60;99.90;;;;;;5034931;28;20460;-60
2022/05/03 01:41:49;;;;;;;20.45;18.35;;;8.60;99.90;;;;;;5036260;28;20489;-60
2022/05/03 01:44:35;;;;;;;20.75;18.17;;;8.60;99.90;;;;;;5034449;28;20026;-60
2022/05/03 01:47:20;;;;;;;20.10;17.63;;;8.60;99.90;;;;;;5017664;28;20034;-60
2022/05/03 01:50:20;;;;;;;21.42;18.10;;;8.60;99.90;;;;;;5032766;28;20402;-61
2022/05/03 01:53:01;;;;;;;23.33;18.23;;;8.60;99.90;;;;;;5046671;28;20029;-60
2022/05/03 01:55:51;;;;;;;21.83;16.77;;;8.50;99.90;;;;;;5044588;28;20094;-61
2022/05/03 01:58:43;;;;;;;19.02;16.95;;;8.50;99.90;;;;;;5037307;28;20057;-60
2022/05/03 02:01:36;;;;;;;19.52;17.63;;;8.40;99.90;;;;;;5035481;28;20144;-60
2022/05/03 02:04:24;;;;;;;19.45;17.55;;;8.20;99.90;;;;;;5035371;28;20033;-60
2022/05/03 02:07:06;;;;;;;17.45;15.65;;;8.10;99.90;;;;;;5034930;28;20056;-60
2022/05/03 02:10:07;;;;;;;19.00;17.20;;;8.10;99.90;;;;;;5035209;28;20038;-60
2022/05/03 02:12:33;;;;;;;17.27;15.80;;;8.10;99.90;;;;;;5034897;28;20079;-60
2022/05/03 02:15:11;;;;;;;18.63;16.77;;;8.30;99.90;;;;;;5034757;28;20063;-60
2022/05/03 02:18:09;;;;;;;17.75;15.98;;;8.40;99.90;;;;;;5034538;28;20474;-60
2022/05/03 02:21:10;;;;;;;18.17;16.25;;;8.40;99.90;;;;;;5034191;28;20110;-60
2022/05/03 02:24:07;;;;;;;17.70;15.98;;;8.40;99.90;;;;;;5034588;28;20133;-60
2022/05/03 02:26:43;;;;;;;20.00;18.15;;;8.40;99.90;;;;;;5027374;28;20071;-59
2022/05/03 02:29:44;;;;;;;21.52;19.27;;;8.40;99.90;;;;;;5032370;28;20043;-60
2022/05/03 02:32:12;;;;;;;19.55;17.55;;;8.40;99.90;;;;;;5032014;28;20039;-60
2022/05/03 02:34:49;;;;;;;25.58;20.00;;;8.50;99.90;;;;;;5032178;28;20057;-60
2022/05/03 02:37:25;;;;;;;20.45;18.00;;;8.50;99.90;;;;;;5035103;28;20455;-60
2022/05/03 02:40:00;;;;;;;22.90;20.67;;;8.60;99.90;;;;;;5033500;28;20057;-60
2022/05/03 02:42:27;;;;;;;20.08;18.13;;;8.50;99.90;;;;;;5035203;28;20072;-60
2022/05/03 02:44:56;;;;;;;18.60;16.77;;;8.40;99.90;;;;;;5035236;28;20049;-60
2022/05/03 02:47:32;;;;;;;20.10;17.92;;;8.50;99.90;;;;;;5032726;28;20029;-60
2022/05/03 02:50:30;;;;;;;18.73;16.92;;;8.50;99.90;;;;;;5013643;28;20055;-60
2022/05/03 02:53:03;;;;;;;18.88;17.08;;;8.40;99.90;;;;;;5014570;28;20042;-60
2022/05/03 02:55:41;;;;;;;19.08;17.27;;;8.50;99.90;;;;;;5044606;28;20033;-59
2022/05/03 02:58:30;;;;;;;19.42;17.45;;;8.40;99.90;;;;;;5034685;28;20048;-60
2022/05/03 03:04:03;;;;;;;19.80;18.00;;;8.40;99.90;;;;;;5034569;28;20040;-60
2022/05/03 03:06:38;;;;;;;21.25;19.10;;;8.40;99.90;;;;;;5034104;28;20088;-58
2022/05/03 03:09:06;;;;;;;24.17;21.73;;;8.40;99.90;;;;;;5034751;28;20026;-60
2022/05/03 03:11:41;;;;;;;24.30;21.70;;;8.40;99.90;;;;;;5035072;28;20032;-59
2022/05/03 03:14:39;;;;;;;22.85;20.60;;;8.50;99.90;;;;;;5031791;28;20053;-60
2022/05/03 03:17:07;;;;;;;21.08;19.13;;;8.40;99.90;;;;;;5016845;28;20021;-60
2022/05/03 03:20:02;;;;;;;21.08;19.10;;;8.40;99.90;;;;;;5032432;28;20040;-60
2022/05/03 03:22:30;;;;;;;24.08;21.55;;;8.50;99.90;;;;;;5047841;28;20040;-60
2022/05/03 03:24:58;;;;;;;25.25;22.85;;;8.50;99.90;;;;;;5034187;28;20033;-60
2022/05/03 03:27:26;;;;;;;25.33;23.02;;;8.50;99.90;;;;;;5032956;28;20071;-60
2022/05/03 03:29:56;;;;;;;22.77;20.75;;;8.50;99.90;;;;;;5032781;28;20104;-60
2022/05/03 03:32:26;;;;;;;24.70;22.50;;;8.60;99.90;;;;;;5033544;28;20132;-59
2022/05/03 03:34:57;;;;;;;24.88;22.38;;;8.60;99.90;;;;;;5030435;28;20024;-60
2022/05/03 03:37:25;;;;;;;26.33;23.70;;;8.60;99.90;;;;;;5047737;28;20035;-61
2022/05/03 03:39:51;;;;;;;25.33;23.00;;;8.60;99.90;;;;;;5032692;28;20429;-60
2022/05/03 03:42:17;;;;;;;25.40;22.85;;;8.60;99.90;;;;;;5034316;28;20042;-60
2022/05/03 03:44:43;;;;;;;25.02;22.83;;;8.50;99.90;;;;;;5034045;28;20029;-60
2022/05/03 03:47:09;;;;;;;24.10;21.85;;;8.50;99.90;;;;;;5031537;28;20032;-60
2022/05/03 03:49:36;;;;;;;24.65;22.23;;;8.50;99.90;;;;;;5033320;28;20105;-60
2022/05/03 03:52:02;;;;;;;25.50;23.30;;;8.50;99.90;;;;;;5035503;28;20481;-59
2022/05/03 03:54:29;;;;;;;25.63;22.85;;;8.50;99.90;;;;;;5034013;28;20493;-59
2022/05/03 03:56:56;;;;;;;26.48;23.85;;;8.40;99.90;;;;;;5032919;28;20091;-60
2022/05/03 03:59:23;;;;;;;24.67;22.27;;;8.50;99.90;;;;;;5031446;28;20021;-60
2022/05/03 04:01:50;;;;;;;24.30;22.00;;;8.50;99.90;;;;;;5030478;28;20164;-60
2022/05/03 04:04:24;;;;;;;25.50;23.15;;;8.50;99.90;;;;;;5036086;28;20374;-60
2022/05/03 04:06:50;;;;;;;24.90;22.50;;;8.50;99.90;;;;;;5033085;28;20026;-59
2022/05/03 04:09:16;;;;;;;23.65;21.65;;;8.50;99.90;;;;;;5032622;28;20455;-60
2022/05/03 04:11:46;;;;;;;24.63;22.33;;;8.50;99.90;;;;;;5033993;28;20525;-59
2022/05/03 04:14:13;;;;;;;25.27;23.02;;;8.50;99.90;;;;;;5030933;28;20036;-59
2022/05/03 04:16:40;;;;;;;24.58;22.02;;;8.50;99.90;;;;;;5031330;28;20044;-60
2022/05/03 04:19:06;;;;;;;23.55;21.35;;;8.50;99.90;;;;;;5035535;28;20482;-60
2022/05/03 04:21:32;;;;;;;23.90;21.52;;;8.50;99.90;;;;;;5037558;28;20099;-60
2022/05/03 04:23:59;;;;;;;24.25;21.85;;;8.50;99.90;;;;;;5037632;28;20038;-60
2022/05/03 04:26:25;;;;;;;23.85;21.75;;;8.50;99.90;;;;;;5037803;28;20029;-60
2022/05/03 04:28:58;;;;;;;23.95;21.73;;;8.50;99.90;;;;;;5033282;28;20052;-59
2022/05/03 04:31:29;;;;;;;24.27;21.88;;;8.60;99.90;;;;;;5047556;28;20112;-60
2022/05/03 04:33:55;;;;;;;24.40;22.17;;;8.50;99.90;;;;;;5036938;28;20030;-60
2022/05/03 04:36:21;;;;;;;23.35;21.15;;;8.50;99.90;;;;;;5037280;28;20112;-60
2022/05/03 04:38:48;;;;;;;25.40;23.08;;;8.50;99.90;;;;;;5034605;28;20117;-60
2022/05/03 04:41:14;;;;;;;26.15;23.40;;;8.50;99.90;;;;;;5035079;28;20037;-60
2022/05/03 04:43:40;;;;;;;25.08;22.67;;;8.60;99.90;;;;;;5035660;28;20462;-59
2022/05/03 04:46:05;;;;;;;24.05;21.95;;;8.60;99.90;;;;;;5036784;28;20029;-58
2022/05/03 04:48:31;;;;;;;24.73;22.30;;;8.60;99.90;;;;;;5035506;28;20397;-59
2022/05/03 04:50:57;;;;;;;24.88;22.58;;;8.60;99.90;;;;;;5037440;28;20025;-59
2022/05/03 04:53:23;;;;;;;23.17;21.02;;;8.60;99.90;;;;;;5036524;28;20120;-59
2022/05/03 04:55:49;;;;;;;23.17;20.55;;;8.70;99.90;;;;;;5033180;28;20096;-59
2022/05/03 04:58:15;;;;;;;22.98;20.98;;;8.70;99.90;;;;;;5038859;28;20029;-59
2022/05/03 05:00:40;;;;;;;22.73;20.63;;;8.70;99.90;;;;;;5036426;28;20526;-59
2022/05/03 05:03:06;;;;;;;23.88;21.65;;;8.70;99.90;;;;;;5036830;28;20533;-59
2022/05/03 05:05:32;;;;;;;22.92;20.92;;;8.70;99.90;;;;;;5036826;28;20498;-59
2022/05/03 05:08:05;;;;;;;22.20;20.17;;;8.70;99.90;;;;;;5032864;28;20022;-59
2022/05/03 05:10:32;;;;;;;26.40;23.80;;;8.70;99.90;;;;;;5037122;28;20052;-59
2022/05/03 05:13:02;;;;;;;24.30;21.88;;;8.70;99.90;;;;;;5037386;28;20028;-60
2022/05/03 05:15:29;;;;;;;23.80;21.55;;;8.70;99.90;;;;;;5036139;28;20057;-60
2022/05/03 05:17:56;;;;;;;23.00;21.02;;;8.70;99.90;;;;;;5034597;28;20029;-59
2022/05/03 05:20:23;;;;;;;23.15;21.02;;;8.70;99.90;;;;;;5036218;28;20515;-60
2022/05/03 05:22:48;;;;;;;23.52;21.42;;;8.80;99.90;;;;;;5032781;28;20038;-60
2022/05/03 05:25:14;;;;;;;22.38;20.33;;;8.90;99.90;;;;;;5037481;28;20040;-60
2022/05/03 05:27:41;;;;;;;23.20;20.45;;;8.90;99.90;;;;;;5034998;28;20025;-60
2022/05/03 05:30:08;;;;;;;21.85;19.85;;;9.00;99.90;;;;;;5035797;28;20405;-60
2022/05/03 05:32:34;;;;;;;22.08;19.85;;;9.10;99.90;;;;;;5036354;28;20033;-60
2022/05/03 05:35:01;;;;;;;22.05;19.80;;;9.10;99.90;;;;;;5032686;28;20375;-60
2022/05/03 05:37:26;;;;;;;21.52;18.92;;;9.10;99.90;;;;;;5037115;28;20034;-59
2022/05/03 05:39:52;;;;;;;22.92;20.73;;;9.20;99.90;;;;;;5036828;28;20513;-60
2022/05/03 05:42:18;;;;;;;23.77;21.33;;;9.30;99.90;;;;;;5035923;28;20612;-59
2022/05/03 05:44:43;;;;;;;25.52;21.08;;;9.40;99.90;;;;;;5035751;28;20032;-59
2022/05/03 05:47:09;;;;;;;23.10;20.65;;;9.40;99.90;;;;;;5033620;28;20120;-59
2022/05/03 05:49:35;;;;;;;26.55;20.40;;;9.30;99.90;;;;;;5035402;28;20474;-59
2022/05/03 05:54:45;;;;;;;21.08;18.70;;;9.60;99.90;;;;;;5035990;28;20040;-60
2022/05/03 05:57:11;;;;;;;19.40;17.50;;;9.70;99.90;;;;;;5035817;28;20029;-60
2022/05/03 05:59:37;;;;;;;22.92;18.20;;;9.80;99.90;;;;;;5035575;28;20056;-60
2022/05/03 06:02:03;;;;;;;20.90;18.98;;;9.90;99.90;;;;;;5031192;28;20503;-59
2022/05/03 06:04:28;;;;;;;21.17;19.15;;;9.90;99.90;;;;;;5036076;28;20478;-59
2022/05/03 06:06:55;;;;;;;20.90;16.92;;;9.90;99.90;;;;;;5034935;28;20068;-59
2022/05/03 06:09:21;;;;;;;19.42;17.42;;;10.00;99.90;;;;;;5035785;28;20026;-60
2022/05/03 06:11:47;;;;;;;18.80;16.92;;;10.00;99.90;;;;;;5035652;28;20504;-60
2022/05/03 06:14:13;;;;;;;17.98;16.23;;;10.10;99.90;;;;;;5033218;28;20025;-60
2022/05/03 06:16:48;;;;;;;17.00;15.27;;;10.30;99.90;;;;;;5032089;28;20112;-60
2022/05/03 06:19:14;;;;;;;16.83;14.23;;;10.40;99.90;;;;;;5036462;28;20030;-60
2022/05/03 06:21:40;;;;;;;17.20;15.23;;;10.60;99.90;;;;;;5035390;28;20052;-59
2022/05/03 06:24:06;;;;;;;16.85;15.05;;;10.60;99.90;;;;;;5035205;28;20494;-60
2022/05/03 06:26:32;;;;;;;15.43;13.75;;;10.70;99.90;;;;;;5033749;28;20029;-60
2022/05/03 06:28:59;;;;;;;15.43;13.48;;;10.90;99.90;;;;;;5031686;28;20022;-60
2022/05/03 06:31:24;;;;;;;15.95;14.38;;;10.90;99.90;;;;;;5035528;28;20029;-60
2022/05/03 06:33:50;;;;;;;17.67;13.93;;;10.90;99.90;;;;;;5033813;28;20561;-60
2022/05/03 06:36:17;;;;;;;14.73;13.23;;;11.10;99.90;;;;;;5033807;28;20032;-60
2022/05/03 06:38:43;;;;;;;16.30;13.40;;;11.30;99.90;;;;;;5035136;28;20049;-59
2022/05/03 06:41:09;;;;;;;15.80;12.68;;;11.30;99.90;;;;;;5030028;28;20041;-60
2022/05/03 06:43:35;;;;;;;18.30;13.55;;;11.30;99.90;;;;;;5033859;28;20034;-59
2022/05/03 06:46:01;;;;;;;17.95;12.48;;;11.50;99.90;;;;;;5034572;28;20025;-60
2022/05/03 06:48:26;;;;;;;16.20;12.93;;;11.60;99.90;;;;;;5035241;28;20510;-60
2022/05/03 06:50:52;;;;;;;14.32;12.70;;;11.60;99.90;;;;;;5034909;28;20116;-59
2022/05/03 06:53:18;;;;;;;15.93;13.13;;;12.00;99.90;;;;;;5033464;28;20029;-59
2022/05/03 06:55:44;;;;;;;13.45;12.07;;;12.00;99.90;;;;;;5031419;28;20463;-60
2022/05/03 06:58:10;;;;;;;13.07;11.82;;;12.30;99.90;;;;;;5035381;28;20057;-60
2022/05/03 07:00:35;;;;;;;12.85;11.73;;;12.40;99.90;;;;;;5034630;28;20036;-59
2022/05/03 07:03:01;;;;;;;13.43;11.63;;;12.30;99.90;;;;;;5035002;28;20040;-59
2022/05/03 07:05:27;;;;;;;11.95;10.70;;;12.50;99.90;;;;;;5034594;28;20068;-59
2022/05/03 07:07:53;;;;;;;12.65;11.25;;;12.80;99.90;;;;;;5030260;28;20025;-59
2022/05/03 07:10:19;;;;;;;12.45;10.57;;;13.00;99.90;;;;;;5036331;28;20494;-60
2022/05/03 07:12:45;;;;;;;12.13;10.80;;;13.30;99.90;;;;;;5034523;28;20064;-60
2022/05/03 07:15:11;;;;;;;12.98;10.73;;;13.60;99.90;;;;;;5035014;28;20551;-60
2022/05/03 07:23:06;;;;;;;13.60;9.80;;;14.10;99.90;;;;;;5014456;28;20131;-59
2022/05/03 07:25:32;;;;;;;12.35;10.05;;;14.20;99.90;;;;;;5033989;28;20024;-59
2022/05/03 07:27:58;;;;;;;10.15;9.25;;;14.10;99.90;;;;;;5035054;28;20037;-60
2022/05/03 07:30:24;;;;;;;11.80;8.80;;;14.10;99.90;;;;;;5034402;28;20501;-59
2022/05/03 07:32:50;;;;;;;9.98;9.02;;;14.70;99.90;;;;;;5034594;28;20033;-59
2022/05/03 07:35:16;;;;;;;11.05;9.18;;;14.40;99.90;;;;;;5032698;28;20028;-59
2022/05/03 07:37:42;;;;;;;14.20;8.80;;;14.70;99.90;;;;;;5031525;28;20506;-59
2022/05/03 07:40:10;;;;;;;10.52;8.75;;;15.00;99.90;;;;;;5036039;28;20183;-59
2022/05/03 07:42:36;;;;;;;9.85;8.85;;;15.40;99.90;;;;;;5033831;28;20041;-59
2022/05/03 07:45:02;;;;;;;11.27;8.85;;;15.50;99.90;;;;;;5034016;28;20025;-59
2022/05/03 07:47:28;;;;;;;11.18;8.57;;;15.40;99.90;;;;;;5034128;28;20451;-59
2022/05/03 07:49:53;;;;;;;9.00;7.93;;;15.70;99.90;;;;;;5013983;28;20053;-59
2022/05/03 07:52:19;;;;;;;8.88;8.00;;;17.30;99.90;;;;;;5036221;28;20522;-60
2022/05/03 07:54:45;;;;;;;8.88;7.18;;;17.40;99.90;;;;;;5036842;28;20104;-60
2022/05/03 07:57:12;;;;;;;9.25;6.95;;;19.10;99.90;;;;;;5037983;28;20478;-59
2022/05/03 07:59:38;;;;;;;8.50;6.80;;;19.70;99.90;;;;;;5036828;28;20454;-60
2022/05/03 08:02:04;;;;;;;8.38;6.57;;;20.30;99.90;;;;;;5033086;28;20461;-60
2022/05/03 08:04:30;;;;;;;8.48;5.93;;;21.60;99.90;;;;;;5037966;28;20219;-60
2022/05/03 08:06:56;;;;;;;9.35;6.15;;;21.20;99.90;;;;;;5038323;28;20507;-60
2022/05/03 08:09:22;;;;;;;6.18;5.57;;;20.10;99.90;;;;;;5037650;28;20021;-59
2022/05/03 08:11:47;;;;;;;6.57;5.45;;;20.20;99.90;;;;;;5037842;28;20462;-60
2022/05/03 08:14:13;;;;;;;5.85;5.35;;;18.90;99.90;;;;;;5035819;28;20049;-60
2022/05/03 08:16:39;;;;;;;7.22;5.00;;;21.20;99.90;;;;;;5035699;28;20478;-60
2022/05/03 08:19:05;;;;;;;11.18;5.40;;;22.30;99.90;;;;;;5038283;28;20479;-60
2022/05/03 08:21:35;;;;;;;7.32;4.90;;;22.60;99.90;;;;;;5037494;28;20033;-59
2022/05/03 08:24:02;;;;;;;11.70;5.80;;;23.00;99.90;;;;;;5037282;28;20045;-60
2022/05/03 08:26:29;;;;;;;5.72;5.13;;;21.40;99.90;;;;;;5037839;28;20040;-59
2022/05/03 08:28:55;;;;;;;8.50;5.22;;;22.10;99.90;;;;;;5017568;28;20113;-59
2022/05/03 08:31:21;;;;;;;9.05;5.22;;;21.80;99.90;;;;;;5039522;28;20168;-60
2022/05/03 08:33:47;;;;;;;9.40;5.20;;;21.70;99.90;;;;;;5037492;28;20036;-60
2022/05/03 08:36:14;;;;;;;9.98;5.22;;;21.70;99.90;;;;;;5037583;28;20029;-59
2022/05/03 08:44:08;;;;;;;8.30;4.88;;;19.60;99.90;;;;;;5021228;28;20043;-60
2022/05/03 08:46:36;;;;;;;8.57;4.90;;;20.80;99.90;;;;;;5036542;28;20037;-59
2022/05/03 08:49:04;;;;;;;7.97;5.85;;;20.80;99.90;;;;;;5038424;28;20052;-60
2022/05/03 08:51:31;;;;;;;9.77;5.32;;;19.60;99.90;;;;;;5037353;28;20079;-60
2022/05/03 08:53:59;;;;;;;11.43;5.38;;;21.00;99.90;;;;;;5036692;28;20060;-59
2022/05/03 08:56:25;;;;;;;15.98;5.40;;;21.50;99.90;;;;;;5036663;28;20020;-59
2022/05/03 08:58:51;;;;;;;6.25;5.38;;;21.80;99.90;;;;;;5033038;28;20025;-60
2022/05/03 09:01:18;;;;;;;9.75;5.10;;;22.20;99.90;;;;;;5038845;28;20493;-60
2022/05/03 09:03:44;;;;;;;7.18;4.75;;;21.60;99.90;;;;;;5036941;28;20037;-60
2022/05/03 09:06:10;;;;;;;8.85;5.35;;;21.30;99.90;;;;;;5035781;28;20035;-59
2022/05/03 09:08:36;;;;;;;9.60;4.65;;;20.90;99.90;;;;;;5036692;28;20577;-60
2022/05/03 09:11:16;;;;;;;8.10;4.70;;;21.20;99.90;;;;;;5033259;28;20108;-59
2022/05/03 09:13:43;;;;;;;6.53;4.53;;;21.70;99.90;;;;;;5033066;28;20022;-60
2022/05/03 09:16:15;;;;;;;7.65;4.32;;;22.30;99.90;;;;;;5038458;28;20037;-60
2022/05/03 09:18:42;;;;;;;12.23;4.72;;;21.50;99.90;;;;;;5034915;28;20121;-59
2022/05/03 09:24:13;;;;;;;8.32;4.80;;;24.10;98.30;;;;;;5036754;28;20569;-60
2022/05/03 09:26:39;;;;;;;6.07;4.30;;;25.00;96.10;;;;;;5036739;28;20036;-60
2022/05/03 09:29:09;;;;;;;7.43;3.80;;;26.80;94.10;;;;;;5033253;28;20402;-60
2022/05/03 09:31:48;;;;;;;8.07;4.38;;;28.20;94.30;;;;;;5035542;28;20033;-60
2022/05/03 09:34:25;;;;;;;8.23;3.80;;;;;;;;;;5037077;28;20445;-60
2022/05/03 09:37:04;;;;;;;7.50;4.13;;;29.30;90.50;;;;;;5035812;28;20045;-60
2022/05/03 09:39:37;;;;;;;4.53;3.65;;;28.00;88.20;;;;;;5036011;28;20120;-60
2022/05/03 09:42:13;;;;;;;7.03;4.20;;;27.10;89.10;;;;;;5036449;28;20038;-60
2022/05/03 09:44:55;;;;;;;6.43;4.05;;;26.60;92.10;;;;;;5036191;28;20029;-60
2022/05/03 09:47:23;;;;;;;10.15;3.95;;;26.80;89.30;;;;;;5035304;28;20116;-60
2022/05/03 09:49:49;;;;;;;8.77;3.85;;;25.30;91.20;;;;;;5032070;28;20818;-60
2022/05/03 09:52:30;;;;;;;12.18;4.20;;;27.40;90.70;;;;;;5037940;28;20029;-60
2022/05/03 09:55:03;;;;;;;9.10;3.80;;;28.20;86.10;;;;;;5035210;28;20533;-60
2022/05/03 09:57:30;;;;;;;;;;;26.20;90.20;;;;;;5034923;28;20055;-60
2022/05/03 09:59:57;;;;;;;6.22;3.90;;;27.40;87.70;;;;;;5034691;28;19976;-60
2022/05/03 10:02:25;;;;;;;6.22;3.83;;;27.10;90.10;;;;;;5034799;28;20040;-60
2022/05/03 10:04:53;;;;;;;9.25;4.68;;;26.70;86.30;;;;;;5031606;28;20064;-60
2022/05/03 10:07:23;;;;;;;8.48;3.80;;;25.60;85.50;;;;;;5037633;28;20116;-60
2022/05/03 10:09:49;;;;;;;9.32;3.80;;;23.20;90.00;;;;;;5035642;28;20033;-60
2022/05/03 10:12:16;;;;;;;4.75;3.50;;;23.80;90.00;;;;;;5035547;28;20026;-61
2022/05/03 10:14:43;;;;;;;9.20;4.40;;;22.80;90.30;;;;;;5035897;28;20060;-60
2022/05/03 10:20:42;;;;;;;12.25;4.10;;;23.90;88.40;;;;;;5018421;28;20136;-60
2022/05/03 10:23:28;;;;;;;7.97;4.20;;;24.20;88.90;;;;;;5018346;28;20708;-60
2022/05/03 10:25:55;;;;;;;6.85;3.65;;;26.00;86.00;;;;;;5031010;28;20040;-60
2022/05/03 10:28:21;;;;;;;7.68;3.58;;;25.00;85.10;;;;;;5037264;28;20021;-60
2022/05/03 10:31:08;;;;;;;5.07;3.35;;;25.60;87.30;;;;;;5035563;28;20402;-60
2022/05/03 10:33:35;;;;;;;6.05;3.80;;;27.10;85.90;;;;;;5034643;28;20034;-60
2022/05/03 10:36:02;;;;;;;9.10;4.10;;;25.10;85.70;;;;;;5033943;28;20029;-60
2022/05/03 10:38:43;;;;;;;7.80;3.72;;;24.50;86.70;;;;;;5067177;28;20409;-61
2022/05/03 10:41:10;;;;;;;6.90;4.15;;;24.90;88.00;;;;;;5062995;28;20029;-60
2022/05/03 10:43:38;;;;;;;8.80;4.00;;;24.00;87.60;;;;;;5050491;28;20033;-60
2022/05/03 10:46:12;;;;;;;7.22;3.80;;;24.50;84.70;;;;;;5052850;28;20449;-60
2022/05/03 10:48:41;;;;;;;5.72;3.30;;;24.10;83.90;;;;;;5051258;28;20037;-60
2022/05/03 10:51:11;;;;;;;7.82;3.40;;;27.20;84.70;;;;;;5051505;28;20406;-60
2022/05/03 10:53:40;;;;;;;4.72;3.33;;;26.20;79.00;;;;;;5051406;28;20035;-60
2022/05/03 10:56:12;;;;;;;3.65;2.85;;;25.40;81.20;;;;;;5048106;28;20080;-60
2022/05/03 10:58:40;;;;;;;5.63;3.20;;;26.00;81.10;;;;;;5049962;28;20022;-60
2022/05/03 11:01:20;;;;;;;3.97;2.95;;;25.70;79.40;;;;;;5053113;28;20053;-60
2022/05/03 11:04:06;;;;;;;5.07;2.60;;;26.30;77.40;;;;;;5051335;28;20029;-61
2022/05/03 11:06:38;;;;;;;3.83;2.50;;;26.70;78.60;;;;;;5051116;28;20029;-60
2022/05/03 11:11:39;;;;;;;4.60;3.28;;;26.40;77.10;;;;;;5051220;28;20572;-61
2022/05/03 11:14:11;;;;;;;5.45;2.70;;;25.20;80.70;;;;;;5030887;28;20017;-60
2022/05/03 11:16:36;;;;;;;4.18;2.90;;;24.30;80.70;;;;;;5046900;28;20091;-61
2022/05/03 11:19:13;;;;;;;5.07;3.22;;;24.80;80.70;;;;;;5052283;28;20037;-60
2022/05/03 11:21:41;;;;;;;6.20;3.15;;;24.00;79.20;;;;;;5051312;28;20034;-60
2022/05/03 11:24:21;;;;;;;3.55;2.78;;;25.20;78.00;;;;;;5050713;28;20040;-60
2022/05/03 11:26:48;;;;;;;4.03;3.30;;;24.20;79.60;;;;;;5050781;28;20037;-61
2022/05/03 11:29:14;;;;;;;4.57;3.50;;;24.10;81.80;;;;;;5048618;28;20029;-60
2022/05/03 11:31:49;;;;;;;5.47;3.63;;;24.70;80.30;;;;;;5048319;28;20025;-60
2022/05/03 11:34:17;;;;;;;4.03;3.17;;;24.20;80.20;;;;;;5051537;28;20309;-61
2022/05/03 11:36:46;;;;;;;5.13;3.15;;;25.70;80.20;;;;;;5050209;28;20083;-60
2022/05/03 11:39:13;;;;;;;4.53;3.10;;;26.40;80.10;;;;;;5050574;28;20066;-61
2022/05/03 11:41:39;;;;;;;4.43;3.65;;;27.00;76.40;;;;;;5050786;28;20071;-60
2022/05/03 11:44:05;;;;;;;6.03;3.50;;;24.90;79.10;;;;;;5047129;28;20036;-61
2022/05/03 11:46:31;;;;;;;4.88;3.38;;;24.60;79.60;;;;;;5050251;28;20378;-61
2022/05/03 11:49:04;;;;;;;5.20;3.63;;;24.90;79.50;;;;;;5043611;28;20036;-60
2022/05/03 11:57:11;;;;;;;5.57;3.58;;;24.10;81.40;;;;;;5036981;28;20037;-60
2022/05/03 11:59:44;;;;;;;4.78;3.55;;;24.30;82.70;;;;;;5037321;28;20029;-61
2022/05/03 12:02:19;;;;;;;3.50;3.20;;;25.60;80.20;;;;;;5033613;28;20506;-60
2022/05/03 12:05:11;;;;;;;5.53;3.40;;;25.50;80.90;;;;;;5033085;28;20025;-60
2022/05/03 12:07:50;;;;;;;9.73;3.58;;;24.80;81.00;;;;;;5046839;28;20032;-60
2022/05/03 12:10:35;;;;;;;4.00;3.08;;;24.60;81.70;;;;;;5037826;28;20037;-60
2022/05/03 12:13:07;;;;;;;6.30;3.47;;;23.90;82.10;;;;;;5037695;28;20079;-60
2022/05/03 12:15:49;;;;;;;5.13;3.20;;;25.10;77.10;;;;;;5035203;28;20022;-60
2022/05/03 12:18:21;;;;;;;6.97;3.33;;;25.60;79.50;;;;;;5036499;28;20469;-60
2022/05/03 12:20:53;;;;;;;6.40;3.67;;;25.10;79.10;;;;;;5036585;28;20064;-61
2022/05/03 12:23:19;;;;;;;4.40;3.15;;;23.90;80.20;;;;;;5035389;28;20029;-59
2022/05/03 12:25:56;;;;;;;4.75;3.22;;;23.80;82.20;;;;;;5033677;28;20071;-60
2022/05/03 12:28:38;;;;;;;4.20;3.38;;;23.80;82.20;;;;;;5038371;28;20034;-60
2022/05/03 12:31:06;;;;;;;3.78;3.15;;;23.70;80.20;;;;;;5037943;28;20037;-60
2022/05/03 12:33:32;;;;;;;4.90;3.50;;;24.10;80.90;;;;;;5034861;28;20144;-60
2022/05/03 12:35:59;;;;;;;3.58;3.20;;;24.50;78.70;;;;;;5036005;28;20025;-60
2022/05/03 12:38:26;;;;;;;5.10;3.10;;;25.60;79.80;;;;;;5035352;28;20102;-60
2022/05/03 12:40:54;;;;;;;6.38;3.45;;;26.50;76.00;;;;;;5032419;28;20056;-60
2022/05/03 12:43:26;;;;;;;5.30;3.53;;;25.10;79.20;;;;;;5038569;28;20017;-61
2022/05/03 12:46:03;;;;;;;7.65;3.40;;;25.70;78.00;;;;;;5035651;28;20079;-60
2022/05/03 12:48:31;;;;;;;4.80;3.35;;;25.80;80.90;;;;;;5036039;28;20389;-61
2022/05/03 12:50:57;;;;;;;6.50;3.63;;;26.10;80.10;;;;;;5036026;28;20124;-60
2022/05/03 12:53:25;;;;;;;7.82;3.80;;;24.40;80.80;;;;;;5035085;28;20025;-61
2022/05/03 12:55:53;;;;;;;4.78;3.67;;;23.20;82.40;;;;;;5032425;28;20056;-60
2022/05/03 12:58:21;;;;;;;6.32;3.33;;;22.80;83.20;;;;;;5037458;28;20072;-61
2022/05/03 13:01:00;;;;;;;4.47;3.92;;;23.00;84.40;;;;;;5034747;28;20034;-60
2022/05/03 13:03:26;;;;;;;7.05;4.20;;;23.00;83.30;;;;;;5035700;28;20035;-60
2022/05/03 13:05:51;;;;;;;4.85;3.08;;;24.00;83.50;;;;;;5035740;28;20108;-61
2022/05/03 13:08:18;;;;;;;8.13;3.40;;;24.00;82.40;;;;;;5033967;28;20132;-61
2022/05/03 13:10:45;;;;;;;4.40;3.50;;;24.10;81.70;;;;;;5033519;28;20021;-61
2022/05/03 13:13:12;;;;;;;6.13;3.78;;;23.60;82.20;;;;;;5035524;28;20025;-60
2022/05/03 13:15:40;;;;;;;5.30;3.65;;;22.90;85.10;;;;;;5035720;28;20533;-61
2022/05/03 13:18:07;;;;;;;5.70;3.55;;;22.50;83.70;;;;;;5035355;28;20034;-61
2022/05/03 13:20:32;;;;;;;5.43;3.70;;;23.60;83.60;;;;;;5035260;28;20086;-61
2022/05/03 13:22:59;;;;;;;6.50;3.40;;;22.90;84.20;;;;;;5031263;28;20108;-60
2022/05/03 13:25:24;;;;;;;4.32;3.13;;;22.90;84.30;;;;;;5044619;28;20087;-60
2022/05/03 13:27:50;;;;;;;5.28;3.50;;;23.30;84.20;;;;;;5035263;28;20454;-61
2022/05/03 13:30:17;;;;;;;4.15;3.20;;;24.40;81.30;;;;;;5035296;28;20033;-60